sensor_id;sensor_type;location;lat;lon;timestamp;pressure;altitude;pressure_sealevel;temperature;humidity
8543;BME280;4309;42.658;23.380;2023-02-07T00:00:23;96070.16;;;-2.79;66.93
8543;BME280;4309;42.658;23.380;2023-02-07T00:00:57;96060.66;;;-2.77;66.74
8543;BME280;4309;42.658;23.380;2023-02-07T00:01:29;96067.00;;;-2.82;67.07
8543;BME280;4309;42.658;23.380;2023-02-07T00:02:01;96068.13;;;-2.86;66.87
8543;BME280;4309;42.658;23.380;2023-02-07T00:02:34;96067.00;;;-2.82;66.99
8543;BME280;4309;42.658;23.380;2023-02-07T00:03:05;96071.09;;;-2.80;66.74
8543;BME280;4309;42.658;23.380;2023-02-07T00:03:37;96065.38;;;-2.83;67.03
8543;BME280;4309;42.658;23.380;2023-02-07T00:04:13;96059.00;;;-2.78;66.86
8543;BME280;4309;42.658;23.380;2023-02-07T00:04:45;96070.47;;;-2.83;67.26
8543;BME280;4309;42.658;23.380;2023-02-07T00:05:17;96069.34;;;-2.79;67.67
8543;BME280;4309;42.658;23.380;2023-02-07T00:05:50;96068.31;;;-2.77;67.69
8543;BME280;4309;42.658;23.380;2023-02-07T00:06:27;96064.13;;;-2.78;67.18
8543;BME280;4309;42.658;23.380;2023-02-07T00:06:59;96068.84;;;-2.72;66.82
8543;BME280;4309;42.658;23.380;2023-02-07T00:07:35;96073.13;;;-2.72;67.11
8543;BME280;4309;42.658;23.380;2023-02-07T00:08:06;96072.28;;;-2.73;67.02
8543;BME280;4309;42.658;23.380;2023-02-07T00:08:39;96071.22;;;-2.81;67.04
8543;BME280;4309;42.658;23.380;2023-02-07T00:09:12;96075.91;;;-2.75;66.62
8543;BME280;4309;42.658;23.380;2023-02-07T00:09:44;96081.81;;;-2.75;66.32
8543;BME280;4309;42.658;23.380;2023-02-07T00:10:16;96077.41;;;-2.73;66.94
8543;BME280;4309;42.658;23.380;2023-02-07T00:10:49;96072.19;;;-2.71;66.42
8543;BME280;4309;42.658;23.380;2023-02-07T00:11:21;96074.53;;;-2.68;66.74
8543;BME280;4309;42.658;23.380;2023-02-07T00:11:58;96069.81;;;-2.62;67.07
8543;BME280;4309;42.658;23.380;2023-02-07T00:12:31;96079.44;;;-2.65;67.24
8543;BME280;4309;42.658;23.380;2023-02-07T00:13:03;96079.66;;;-2.68;66.53
8543;BME280;4309;42.658;23.380;2023-02-07T00:13:36;96073.41;;;-2.64;67.07
8543;BME280;4309;42.658;23.380;2023-02-07T00:14:11;96077.28;;;-2.59;66.51
8543;BME280;4309;42.658;23.380;2023-02-07T00:14:42;96074.41;;;-2.54;66.66
8543;BME280;4309;42.658;23.380;2023-02-07T00:15:14;96080.34;;;-2.54;66.90
8543;BME280;4309;42.658;23.380;2023-02-07T00:15:54;96077.91;;;-2.55;66.63
8543;BME280;4309;42.658;23.380;2023-02-07T00:16:27;96081.59;;;-2.59;66.72
8543;BME280;4309;42.658;23.380;2023-02-07T00:17:00;96079.53;;;-2.67;67.03
8543;BME280;4309;42.658;23.380;2023-02-07T00:17:32;96083.22;;;-2.58;66.81
8543;BME280;4309;42.658;23.380;2023-02-07T00:18:04;96078.28;;;-2.49;67.04
8543;BME280;4309;42.658;23.380;2023-02-07T00:18:38;96079.41;;;-2.53;66.86
8543;BME280;4309;42.658;23.380;2023-02-07T00:19:10;96080.03;;;-2.49;67.38
8543;BME280;4309;42.658;23.380;2023-02-07T00:19:42;96076.38;;;-2.58;67.09
8543;BME280;4309;42.658;23.380;2023-02-07T00:20:14;96083.75;;;-2.66;67.36
8543;BME280;4309;42.658;23.380;2023-02-07T00:20:56;96090.50;;;-2.65;67.46
8543;BME280;4309;42.658;23.380;2023-02-07T00:21:29;96093.06;;;-2.65;66.77
8543;BME280;4309;42.658;23.380;2023-02-07T00:22:03;96088.88;;;-2.66;67.09
8543;BME280;4309;42.658;23.380;2023-02-07T00:22:35;96092.25;;;-2.65;66.26
8543;BME280;4309;42.658;23.380;2023-02-07T00:23:07;96063.75;;;-2.84;66.37
8543;BME280;4309;42.658;23.380;2023-02-07T00:23:43;96084.09;;;-2.83;66.48
8543;BME280;4309;42.658;23.380;2023-02-07T00:24:16;96086.84;;;-2.73;66.95
8543;BME280;4309;42.658;23.380;2023-02-07T00:24:49;96096.56;;;-2.66;67.04
8543;BME280;4309;42.658;23.380;2023-02-07T00:25:21;96092.66;;;-2.71;66.29
8543;BME280;4309;42.658;23.380;2023-02-07T00:25:53;96093.06;;;-2.65;66.29
8543;BME280;4309;42.658;23.380;2023-02-07T00:26:26;96093.69;;;-2.61;66.61
8543;BME280;4309;42.658;23.380;2023-02-07T00:27:01;96099.53;;;-2.59;66.30
8543;BME280;4309;42.658;23.380;2023-02-07T00:27:33;96094.91;;;-2.67;66.01
8543;BME280;4309;42.658;23.380;2023-02-07T00:28:05;96096.38;;;-2.75;66.36
8543;BME280;4309;42.658;23.380;2023-02-07T00:28:38;96097.78;;;-2.71;66.72
8543;BME280;4309;42.658;23.380;2023-02-07T00:29:10;96097.09;;;-2.73;67.10
8543;BME280;4309;42.658;23.380;2023-02-07T00:29:42;96101.59;;;-2.77;67.08
8543;BME280;4309;42.658;23.380;2023-02-07T00:30:14;96085.53;;;-2.79;67.51
8543;BME280;4309;42.658;23.380;2023-02-07T00:30:48;96098.09;;;-2.76;68.06
8543;BME280;4309;42.658;23.380;2023-02-07T00:31:22;96097.59;;;-2.81;67.68
8543;BME280;4309;42.658;23.380;2023-02-07T00:31:54;96087.78;;;-2.87;68.07
8543;BME280;4309;42.658;23.380;2023-02-07T00:32:30;96097.81;;;-2.84;67.67
8543;BME280;4309;42.658;23.380;2023-02-07T00:33:03;96093.94;;;-2.89;67.92
8543;BME280;4309;42.658;23.380;2023-02-07T00:33:34;96101.28;;;-2.85;67.80
8543;BME280;4309;42.658;23.380;2023-02-07T00:34:08;96110.19;;;-2.78;68.42
8543;BME280;4309;42.658;23.380;2023-02-07T00:34:44;96102.28;;;-2.75;68.12
8543;BME280;4309;42.658;23.380;2023-02-07T00:35:17;96106.06;;;-2.68;68.20
8543;BME280;4309;42.658;23.380;2023-02-07T00:35:56;96103.94;;;-2.74;68.28
8543;BME280;4309;42.658;23.380;2023-02-07T00:36:30;96101.34;;;-2.61;67.71
8543;BME280;4309;42.658;23.380;2023-02-07T00:37:03;96106.47;;;-2.61;67.39
8543;BME280;4309;42.658;23.380;2023-02-07T00:37:36;96109.25;;;-2.64;67.24
8543;BME280;4309;42.658;23.380;2023-02-07T00:38:08;96105.34;;;-2.57;67.12
8543;BME280;4309;42.658;23.380;2023-02-07T00:38:40;96114.56;;;-2.55;67.06
8543;BME280;4309;42.658;23.380;2023-02-07T00:39:15;96107.69;;;-2.54;66.96
8543;BME280;4309;42.658;23.380;2023-02-07T00:39:47;96109.44;;;-2.55;66.72
8543;BME280;4309;42.658;23.380;2023-02-07T00:40:18;96095.63;;;-2.65;67.14
8543;BME280;4309;42.658;23.380;2023-02-07T00:40:51;96109.25;;;-2.64;67.23
8543;BME280;4309;42.658;23.380;2023-02-07T00:41:22;96107.50;;;-2.76;67.13
8543;BME280;4309;42.658;23.380;2023-02-07T00:41:55;96106.19;;;-2.82;66.83
8543;BME280;4309;42.658;23.380;2023-02-07T00:42:29;96112.94;;;-2.81;67.71
8543;BME280;4309;42.658;23.380;2023-02-07T00:43:01;96112.47;;;-2.86;67.66
8543;BME280;4309;42.658;23.380;2023-02-07T00:43:34;96111.84;;;-2.89;68.29
8543;BME280;4309;42.658;23.380;2023-02-07T00:44:06;96102.22;;;-2.86;68.35
8543;BME280;4309;42.658;23.380;2023-02-07T00:44:40;96110.28;;;-2.79;68.15
8543;BME280;4309;42.658;23.380;2023-02-07T00:45:12;96107.59;;;-2.65;68.54
8543;BME280;4309;42.658;23.380;2023-02-07T00:45:44;96105.16;;;-2.67;68.45
8543;BME280;4309;42.658;23.380;2023-02-07T00:46:17;96112.72;;;-2.65;68.26
8543;BME280;4309;42.658;23.380;2023-02-07T00:46:50;96108.03;;;-2.71;67.92
8543;BME280;4309;42.658;23.380;2023-02-07T00:47:22;96095.75;;;-2.79;67.99
8543;BME280;4309;42.658;23.380;2023-02-07T00:47:55;96104.03;;;-2.75;68.06
8543;BME280;4309;42.658;23.380;2023-02-07T00:48:28;96107.41;;;-2.75;68.62
8543;BME280;4309;42.658;23.380;2023-02-07T00:49:00;96101.59;;;-2.77;68.34
8543;BME280;4309;42.658;23.380;2023-02-07T00:49:33;96105.28;;;-2.81;68.66
8543;BME280;4309;42.658;23.380;2023-02-07T00:50:06;96097.50;;;-2.79;68.73
8543;BME280;4309;42.658;23.380;2023-02-07T00:50:38;96105.56;;;-2.73;68.34
8543;BME280;4309;42.658;23.380;2023-02-07T00:51:13;96079.38;;;-2.89;68.73
8543;BME280;4309;42.658;23.380;2023-02-07T00:51:45;96098.72;;;-2.72;68.61
8543;BME280;4309;42.658;23.380;2023-02-07T00:52:17;96117.34;;;-2.70;68.63
8543;BME280;4309;42.658;23.380;2023-02-07T00:52:50;96098.50;;;-2.69;68.98
8543;BME280;4309;42.658;23.380;2023-02-07T00:53:22;96105.56;;;-2.73;68.73
8543;BME280;4309;42.658;23.380;2023-02-07T00:53:54;96113.25;;;-2.73;68.42
8543;BME280;4309;42.658;23.380;2023-02-07T00:54:27;96109.16;;;-2.75;68.52
8543;BME280;4309;42.658;23.380;2023-02-07T00:54:59;96103.44;;;-2.79;68.02
8543;BME280;4309;42.658;23.380;2023-02-07T00:55:31;96103.31;;;-2.77;68.36
8543;BME280;4309;42.658;23.380;2023-02-07T00:56:02;96101.19;;;-2.83;68.70
8543;BME280;4309;42.658;23.380;2023-02-07T00:56:35;96103.84;;;-2.85;68.49
8543;BME280;4309;42.658;23.380;2023-02-07T00:57:07;96109.06;;;-2.74;68.86
8543;BME280;4309;42.658;23.380;2023-02-07T00:57:42;96103.72;;;-2.71;68.57
8543;BME280;4309;42.658;23.380;2023-02-07T00:58:14;96106.19;;;-2.69;68.02
8543;BME280;4309;42.658;23.380;2023-02-07T00:58:46;96110.69;;;-2.73;68.22
8543;BME280;4309;42.658;23.380;2023-02-07T00:59:17;96105.78;;;-2.76;68.17
8543;BME280;4309;42.658;23.380;2023-02-07T00:59:49;96106.19;;;-2.69;68.13
8543;BME280;4309;42.658;23.380;2023-02-07T01:00:20;96103.00;;;-2.73;68.36
8543;BME280;4309;42.658;23.380;2023-02-07T01:00:53;96099.13;;;-2.66;67.97
8543;BME280;4309;42.658;23.380;2023-02-07T01:01:26;96096.78;;;-2.69;68.21
8543;BME280;4309;42.658;23.380;2023-02-07T01:01:57;96100.44;;;-2.60;68.18
8543;BME280;4309;42.658;23.380;2023-02-07T01:02:30;96105.13;;;-2.54;68.04
8543;BME280;4309;42.658;23.380;2023-02-07T01:03:02;96100.53;;;-2.62;67.51
8543;BME280;4309;42.658;23.380;2023-02-07T01:03:33;96098.47;;;-2.57;68.17
8543;BME280;4309;42.658;23.380;2023-02-07T01:04:06;96102.59;;;-2.67;68.44
8543;BME280;4309;42.658;23.380;2023-02-07T01:04:38;96103.63;;;-2.69;68.29
8543;BME280;4309;42.658;23.380;2023-02-07T01:05:10;96104.84;;;-2.62;68.73
8543;BME280;4309;42.658;23.380;2023-02-07T01:05:43;96103.31;;;-2.65;68.07
8543;BME280;4309;42.658;23.380;2023-02-07T01:06:15;96103.19;;;-2.63;68.10
8543;BME280;4309;42.658;23.380;2023-02-07T01:06:47;96100.97;;;-2.68;68.77
8543;BME280;4309;42.658;23.380;2023-02-07T01:07:19;96094.72;;;-2.76;68.55
8543;BME280;4309;42.658;23.380;2023-02-07T01:07:51;96099.03;;;-2.77;68.78
8543;BME280;4309;42.658;23.380;2023-02-07T01:08:23;96102.59;;;-2.79;68.56
8543;BME280;4309;42.658;23.380;2023-02-07T01:08:56;96097.59;;;-2.81;68.54
8543;BME280;4309;42.658;23.380;2023-02-07T01:09:29;96091.88;;;-2.84;68.61
8543;BME280;4309;42.658;23.380;2023-02-07T01:10:01;96096.78;;;-2.69;68.81
8543;BME280;4309;42.658;23.380;2023-02-07T01:10:33;96096.06;;;-2.71;68.41
8543;BME280;4309;42.658;23.380;2023-02-07T01:11:08;96095.72;;;-2.66;68.18
8543;BME280;4309;42.658;23.380;2023-02-07T01:11:41;96097.69;;;-2.70;68.43
8543;BME280;4309;42.658;23.380;2023-02-07T01:12:13;96097.00;;;-2.72;69.03
8543;BME280;4309;42.658;23.380;2023-02-07T01:12:47;96098.50;;;-2.69;68.44
8543;BME280;4309;42.658;23.380;2023-02-07T01:13:19;96100.66;;;-2.76;68.61
8543;BME280;4309;42.658;23.380;2023-02-07T01:13:51;96098.22;;;-2.77;69.16
8543;BME280;4309;42.658;23.380;2023-02-07T01:14:24;96101.41;;;-2.86;69.11
8543;BME280;4309;42.658;23.380;2023-02-07T01:14:55;96093.72;;;-2.86;68.76
8543;BME280;4309;42.658;23.380;2023-02-07T01:15:27;96098.75;;;-2.85;69.30
8543;BME280;4309;42.658;23.380;2023-02-07T01:16:00;96098.53;;;-2.82;68.96
8543;BME280;4309;42.658;23.380;2023-02-07T01:16:34;96091.56;;;-2.80;69.22
8543;BME280;4309;42.658;23.380;2023-02-07T01:17:06;96093.81;;;-2.75;68.55
8543;BME280;4309;42.658;23.380;2023-02-07T01:17:38;96103.22;;;-2.76;68.27
8543;BME280;4309;42.658;23.380;2023-02-07T01:18:11;96094.81;;;-2.78;68.79
8543;BME280;4309;42.658;23.380;2023-02-07T01:18:43;96093.19;;;-2.79;68.85
8543;BME280;4309;42.658;23.380;2023-02-07T01:19:19;96091.16;;;-2.86;69.12
8543;BME280;4309;42.658;23.380;2023-02-07T01:19:55;96092.38;;;-2.92;69.35
8543;BME280;4309;42.658;23.380;2023-02-07T01:20:27;96081.06;;;-3.00;69.33
8543;BME280;4309;42.658;23.380;2023-02-07T01:21:01;96098.84;;;-2.86;69.97
8543;BME280;4309;42.658;23.380;2023-02-07T01:21:33;96100.16;;;-2.81;70.07
8543;BME280;4309;42.658;23.380;2023-02-07T01:22:04;96097.69;;;-2.82;69.87
8543;BME280;4309;42.658;23.380;2023-02-07T01:22:38;96093.50;;;-2.83;69.93
8543;BME280;4309;42.658;23.380;2023-02-07T01:23:11;96093.41;;;-2.82;70.35
8543;BME280;4309;42.658;23.380;2023-02-07T01:23:44;96093.84;;;-2.88;69.66
8543;BME280;4309;42.658;23.380;2023-02-07T01:24:17;96097.59;;;-2.81;70.28
8543;BME280;4309;42.658;23.380;2023-02-07T01:24:51;96095.25;;;-2.84;69.73
8543;BME280;4309;42.658;23.380;2023-02-07T01:25:23;96095.03;;;-2.81;69.34
8543;BME280;4309;42.658;23.380;2023-02-07T01:25:55;96096.38;;;-2.75;69.58
8543;BME280;4309;42.658;23.380;2023-02-07T01:26:27;96094.81;;;-2.78;69.37
8543;BME280;4309;42.658;23.380;2023-02-07T01:26:59;96094.94;;;-2.79;69.44
8543;BME280;4309;42.658;23.380;2023-02-07T01:27:32;96100.03;;;-2.79;69.65
8543;BME280;4309;42.658;23.380;2023-02-07T01:28:06;96096.78;;;-2.81;69.95
8543;BME280;4309;42.658;23.380;2023-02-07T01:28:38;96096.19;;;-2.85;69.52
8543;BME280;4309;42.658;23.380;2023-02-07T01:29:13;96091.16;;;-2.86;69.45
8543;BME280;4309;42.658;23.380;2023-02-07T01:29:46;96099.03;;;-2.77;69.73
8543;BME280;4309;42.658;23.380;2023-02-07T01:30:19;96094.34;;;-2.83;70.09
8543;BME280;4309;42.658;23.380;2023-02-07T01:30:51;96095.03;;;-2.81;69.44
8543;BME280;4309;42.658;23.380;2023-02-07T01:31:23;96082.97;;;-2.91;69.08
8543;BME280;4309;42.658;23.380;2023-02-07T01:31:56;96095.25;;;-2.84;69.20
8543;BME280;4309;42.658;23.380;2023-02-07T01:32:30;96087.47;;;-2.82;69.77
8543;BME280;4309;42.658;23.380;2023-02-07T01:33:02;96085.44;;;-2.90;69.43
8543;BME280;4309;42.658;23.380;2023-02-07T01:33:36;96089.44;;;-2.86;69.42
8543;BME280;4309;42.658;23.380;2023-02-07T01:34:10;96089.94;;;-2.93;69.82
8543;BME280;4309;42.658;23.380;2023-02-07T01:34:43;96087.06;;;-3.01;69.51
8543;BME280;4309;42.658;23.380;2023-02-07T01:35:15;96086.38;;;-3.03;69.21
8543;BME280;4309;42.658;23.380;2023-02-07T01:35:47;96088.53;;;-2.97;70.22
8543;BME280;4309;42.658;23.380;2023-02-07T01:36:19;96089.13;;;-2.94;70.21
8543;BME280;4309;42.658;23.380;2023-02-07T01:36:52;96085.75;;;-2.94;70.00
8543;BME280;4309;42.658;23.380;2023-02-07T01:37:25;96077.88;;;-2.91;70.26
8543;BME280;4309;42.658;23.380;2023-02-07T01:37:58;96087.28;;;-2.92;70.86
8543;BME280;4309;42.658;23.380;2023-02-07T01:38:30;96084.91;;;-2.95;70.35
8543;BME280;4309;42.658;23.380;2023-02-07T01:39:05;96085.25;;;-2.99;70.18
8543;BME280;4309;42.658;23.380;2023-02-07T01:39:37;96083.91;;;-2.92;70.22
8543;BME280;4309;42.658;23.380;2023-02-07T01:40:10;96086.91;;;-2.98;69.80
8543;BME280;4309;42.658;23.380;2023-02-07T01:40:43;96075.84;;;-2.99;69.80
8543;BME280;4309;42.658;23.380;2023-02-07T01:41:15;96088.94;;;-3.03;70.00
8543;BME280;4309;42.658;23.380;2023-02-07T01:41:47;96086.59;;;-3.06;70.59
8543;BME280;4309;42.658;23.380;2023-02-07T01:42:22;96091.19;;;-3.11;70.27
8543;BME280;4309;42.658;23.380;2023-02-07T01:42:54;96079.41;;;-3.14;70.06
8543;BME280;4309;42.658;23.380;2023-02-07T01:43:30;96076.06;;;-3.14;70.42
8543;BME280;4309;42.658;23.380;2023-02-07T01:44:05;96076.84;;;-3.14;70.36
8543;BME280;4309;42.658;23.380;2023-02-07T01:45:01;96081.97;;;-3.14;70.91
8543;BME280;4309;42.658;23.380;2023-02-07T01:45:36;96081.38;;;-3.17;71.13
8543;BME280;4309;42.658;23.380;2023-02-07T01:46:08;96083.53;;;-3.24;71.28
8543;BME280;4309;42.658;23.380;2023-02-07T01:46:40;96075.34;;;-3.29;71.46
8543;BME280;4309;42.658;23.380;2023-02-07T01:47:16;96072.97;;;-3.20;70.95
8543;BME280;4309;42.658;23.380;2023-02-07T01:47:48;96082.28;;;-3.06;70.31
8543;BME280;4309;42.658;23.380;2023-02-07T01:48:24;96082.38;;;-2.95;70.81
8543;BME280;4309;42.658;23.380;2023-02-07T01:49:01;96076.13;;;-2.91;70.44
8543;BME280;4309;42.658;23.380;2023-02-07T01:49:37;96064.97;;;-3.02;70.42
8543;BME280;4309;42.658;23.380;2023-02-07T01:50:09;96070.81;;;-3.00;70.13
8543;BME280;4309;42.658;23.380;2023-02-07T01:50:44;96073.59;;;-3.03;70.84
8543;BME280;4309;42.658;23.380;2023-02-07T01:51:19;96078.19;;;-3.08;70.45
8543;BME280;4309;42.658;23.380;2023-02-07T01:52:04;96075.63;;;-3.08;70.51
8543;BME280;4309;42.658;23.380;2023-02-07T01:52:40;96076.63;;;-3.11;70.24
8543;BME280;4309;42.658;23.380;2023-02-07T01:53:14;96071.13;;;-3.05;71.12
8543;BME280;4309;42.658;23.380;2023-02-07T01:53:47;96072.25;;;-3.09;71.04
8543;BME280;4309;42.658;23.380;2023-02-07T01:54:20;96072.88;;;-3.05;70.95
8543;BME280;4309;42.658;23.380;2023-02-07T01:54:58;96076.72;;;-3.00;71.29
8543;BME280;4309;42.658;23.380;2023-02-07T01:55:34;96075.84;;;-2.99;70.91
8543;BME280;4309;42.658;23.380;2023-02-07T01:56:12;96078.59;;;-3.02;70.79
8543;BME280;4309;42.658;23.380;2023-02-07T01:56:49;96066.91;;;-2.93;70.30
8543;BME280;4309;42.658;23.380;2023-02-07T01:57:24;96069.25;;;-2.90;70.57
8543;BME280;4309;42.658;23.380;2023-02-07T01:57:56;96075.41;;;-2.93;70.71
8543;BME280;4309;42.658;23.380;2023-02-07T01:58:46;96069.03;;;-2.87;70.30
8543;BME280;4309;42.658;23.380;2023-02-07T01:59:19;96077.53;;;-2.87;69.88
8543;BME280;4309;42.658;23.380;2023-02-07T01:59:54;96075.19;;;-2.90;69.87
8543;BME280;4309;42.658;23.380;2023-02-07T02:00:28;96074.25;;;-2.89;70.40
8543;BME280;4309;42.658;23.380;2023-02-07T02:01:04;96080.22;;;-3.01;70.40
8543;BME280;4309;42.658;23.380;2023-02-07T02:01:38;96078.69;;;-3.03;70.61
8543;BME280;4309;42.658;23.380;2023-02-07T02:02:14;96074.59;;;-3.06;70.53
8543;BME280;4309;42.658;23.380;2023-02-07T02:02:46;96078.19;;;-3.08;71.31
8543;BME280;4309;42.658;23.380;2023-02-07T02:03:22;96079.19;;;-3.11;70.72
8543;BME280;4309;42.658;23.380;2023-02-07T02:03:55;96077.78;;;-3.15;70.64
8543;BME280;4309;42.658;23.380;2023-02-07T02:04:26;96087.19;;;-3.16;70.74
8543;BME280;4309;42.658;23.380;2023-02-07T02:04:58;96082.47;;;-3.22;70.51
8543;BME280;4309;42.658;23.380;2023-02-07T02:05:32;96086.28;;;-3.27;70.36
8543;BME280;4309;42.658;23.380;2023-02-07T02:06:05;96084.03;;;-3.19;70.11
8543;BME280;4309;42.658;23.380;2023-02-07T02:06:40;96086.78;;;-3.09;70.69
8543;BME280;4309;42.658;23.380;2023-02-07T02:07:13;96087.28;;;-3.04;70.18
8543;BME280;4309;42.658;23.380;2023-02-07T02:07:48;96080.00;;;-2.98;70.38
8543;BME280;4309;42.658;23.380;2023-02-07T02:08:22;96080.22;;;-3.01;70.37
8543;BME280;4309;42.658;23.380;2023-02-07T02:08:56;96075.63;;;-3.08;70.33
8543;BME280;4309;42.658;23.380;2023-02-07T02:09:29;96083.00;;;-3.04;70.97
8543;BME280;4309;42.658;23.380;2023-02-07T02:10:04;96084.31;;;-3.11;70.30
8543;BME280;4309;42.658;23.380;2023-02-07T02:10:48;96084.31;;;-3.11;70.84
8543;BME280;4309;42.658;23.380;2023-02-07T02:12:56;96086.16;;;-3.00;70.28
8543;BME280;4309;42.658;23.380;2023-02-07T02:13:40;96080.75;;;-3.08;71.00
8543;BME280;4309;42.658;23.380;2023-02-07T02:14:34;96090.16;;;-3.09;70.43
8543;BME280;4309;42.658;23.380;2023-02-07T02:15:24;96086.59;;;-3.06;70.77
8543;BME280;4309;42.658;23.380;2023-02-07T02:16:06;96087.19;;;-3.03;71.29
8543;BME280;4309;42.658;23.380;2023-02-07T02:16:47;96082.56;;;-2.98;70.91
8543;BME280;4309;42.658;23.380;2023-02-07T02:17:28;96083.91;;;-2.92;70.87
8543;BME280;4309;42.658;23.380;2023-02-07T02:18:33;96082.78;;;-2.88;70.21
8543;BME280;4309;42.658;23.380;2023-02-07T02:19:30;96081.94;;;-2.89;70.58
8543;BME280;4309;42.658;23.380;2023-02-07T02:22:51;96082.38;;;-2.95;70.25
8543;BME280;4309;42.658;23.380;2023-02-07T02:23:46;96083.09;;;-3.05;69.75
8543;BME280;4309;42.658;23.380;2023-02-07T02:26:17;96084.41;;;-3.00;69.64
8543;BME280;4309;42.658;23.380;2023-02-07T02:26:57;96082.78;;;-3.01;69.41
8543;BME280;4309;42.658;23.380;2023-02-07T02:27:44;96081.94;;;-3.01;69.87
8543;BME280;4309;42.658;23.380;2023-02-07T02:29:58;96084.34;;;-2.98;70.30
8543;BME280;4309;42.658;23.380;2023-02-07T02:31:04;96083.72;;;-3.02;71.02
8543;BME280;4309;42.658;23.380;2023-02-07T02:32:05;96088.44;;;-3.08;71.13
8543;BME280;4309;42.658;23.380;2023-02-07T02:33:15;96082.78;;;-2.88;70.99
8543;BME280;4309;42.658;23.380;2023-02-07T02:33:56;96086.66;;;-2.83;69.90
8543;BME280;4309;42.658;23.380;2023-02-07T02:34:37;96090.25;;;-2.98;70.04
8543;BME280;4309;42.658;23.380;2023-02-07T02:35:15;96091.28;;;-3.00;70.41
8543;BME280;4309;42.658;23.380;2023-02-07T02:35:56;96087.38;;;-3.06;70.66
8543;BME280;4309;42.658;23.380;2023-02-07T02:37:16;96085.44;;;-3.02;70.57
8543;BME280;4309;42.658;23.380;2023-02-07T02:37:59;96096.50;;;-3.02;70.76
8543;BME280;4309;42.658;23.380;2023-02-07T02:38:37;96085.44;;;-3.02;70.59
8543;BME280;4309;42.658;23.380;2023-02-07T02:39:20;96089.63;;;-3.01;70.62
8543;BME280;4309;42.658;23.380;2023-02-07T02:40:03;96084.03;;;-3.06;70.84
8543;BME280;4309;42.658;23.380;2023-02-07T02:40:40;96090.88;;;-3.07;70.55
8543;BME280;4309;42.658;23.380;2023-02-07T02:41:18;96085.88;;;-3.08;70.99
8543;BME280;4309;42.658;23.380;2023-02-07T02:41:57;96091.72;;;-3.06;70.91
8543;BME280;4309;42.658;23.380;2023-02-07T02:42:32;96086.28;;;-3.14;70.51
8543;BME280;4309;42.658;23.380;2023-02-07T02:43:12;96090.88;;;-3.20;70.75
8543;BME280;4309;42.658;23.380;2023-02-07T02:43:49;96088.09;;;-3.04;70.27
8543;BME280;4309;42.658;23.380;2023-02-07T02:44:30;96085.75;;;-2.94;70.27
8543;BME280;4309;42.658;23.380;2023-02-07T02:45:09;96086.38;;;-2.91;69.84
8543;BME280;4309;42.658;23.380;2023-02-07T02:45:45;96086.38;;;-2.91;69.91
8543;BME280;4309;42.658;23.380;2023-02-07T02:46:23;96092.59;;;-2.95;69.41
8543;BME280;4309;42.658;23.380;2023-02-07T02:46:58;96092.06;;;-2.87;69.41
8543;BME280;4309;42.658;23.380;2023-02-07T02:47:32;96092.69;;;-2.84;69.43
8543;BME280;4309;42.658;23.380;2023-02-07T02:48:06;96089.44;;;-2.86;69.01
8543;BME280;4309;42.658;23.380;2023-02-07T02:48:43;96090.75;;;-2.93;69.29
8543;BME280;4309;42.658;23.380;2023-02-07T02:49:15;96100.28;;;-2.95;69.74
8543;BME280;4309;42.658;23.380;2023-02-07T02:49:49;96098.44;;;-2.93;69.44
8543;BME280;4309;42.658;23.380;2023-02-07T02:50:26;96100.06;;;-3.04;69.99
8543;BME280;4309;42.658;23.380;2023-02-07T02:50:58;96100.78;;;-3.02;70.21
8543;BME280;4309;42.658;23.380;2023-02-07T02:51:31;96095.25;;;-2.96;70.33
8543;BME280;4309;42.658;23.380;2023-02-07T02:52:08;96095.47;;;-2.99;70.69
8543;BME280;4309;42.658;23.380;2023-02-07T02:52:40;96100.38;;;-2.96;70.03
8543;BME280;4309;42.658;23.380;2023-02-07T02:53:12;96107.53;;;-3.01;69.96
8543;BME280;4309;42.658;23.380;2023-02-07T02:53:55;96091.41;;;-3.02;70.17
8543;BME280;4309;42.658;23.380;2023-02-07T02:54:29;96098.66;;;-3.08;69.63
8543;BME280;4309;42.658;23.380;2023-02-07T02:55:02;96096.50;;;-3.14;69.43
8543;BME280;4309;42.658;23.380;2023-02-07T02:55:57;96097.50;;;-3.17;70.67
8543;BME280;4309;42.658;23.380;2023-02-07T02:56:45;96103.03;;;-3.23;70.65
8543;BME280;4309;42.658;23.380;2023-02-07T02:57:34;96100.06;;;-3.04;70.58
8543;BME280;4309;42.658;23.380;2023-02-07T02:58:25;96100.69;;;-3.01;70.38
8543;BME280;4309;42.658;23.380;2023-02-07T02:59:11;96103.03;;;-2.98;69.57
8543;BME280;4309;42.658;23.380;2023-02-07T03:00:08;96103.16;;;-3.12;69.96
8543;BME280;4309;42.658;23.380;2023-02-07T03:00:59;96102.72;;;-3.06;70.28
8543;BME280;4309;42.658;23.380;2023-02-07T03:01:40;96101.00;;;-3.05;70.37
8543;BME280;4309;42.658;23.380;2023-02-07T03:02:33;96104.88;;;-3.13;70.75
8543;BME280;4309;42.658;23.380;2023-02-07T03:03:40;96111.25;;;-3.18;70.81
8543;BME280;4309;42.658;23.380;2023-02-07T03:04:27;96117.38;;;-3.21;70.53
8543;BME280;4309;42.658;23.380;2023-02-07T03:05:12;96111.97;;;-3.16;69.84
8543;BME280;4309;42.658;23.380;2023-02-07T03:06:02;96109.81;;;-3.09;70.14
8543;BME280;4309;42.658;23.380;2023-02-07T03:06:45;96110.19;;;-3.16;69.83
8543;BME280;4309;42.658;23.380;2023-02-07T03:07:42;96106.13;;;-3.18;70.13
8543;BME280;4309;42.658;23.380;2023-02-07T03:08:24;96107.34;;;-3.11;70.48
8543;BME280;4309;42.658;23.380;2023-02-07T03:09:08;96096.72;;;-3.05;69.86
8543;BME280;4309;42.658;23.380;2023-02-07T03:09:52;96110.09;;;-3.01;70.51
8543;BME280;4309;42.658;23.380;2023-02-07T03:10:31;96105.91;;;-3.02;70.35
8543;BME280;4309;42.658;23.380;2023-02-07T03:11:08;96104.06;;;-3.00;70.34
8543;BME280;4309;42.658;23.380;2023-02-07T03:11:48;96108.06;;;-2.96;70.41
8543;BME280;4309;42.658;23.380;2023-02-07T03:12:25;96103.56;;;-2.93;70.09
8543;BME280;4309;42.658;23.380;2023-02-07T03:13:08;96099.84;;;-2.89;70.01
8543;BME280;4309;42.658;23.380;2023-02-07T03:13:54;96114.09;;;-2.85;69.53
8543;BME280;4309;42.658;23.380;2023-02-07T03:14:34;96111.22;;;-2.93;70.11
8543;BME280;4309;42.658;23.380;2023-02-07T03:15:15;96102.50;;;-2.90;69.96
8543;BME280;4309;42.658;23.380;2023-02-07T03:15:58;96115.03;;;-2.86;69.52
8543;BME280;4309;42.658;23.380;2023-02-07T03:16:40;96107.63;;;-2.90;68.82
8543;BME280;4309;42.658;23.380;2023-02-07T03:17:21;96108.97;;;-2.97;69.60
8543;BME280;4309;42.658;23.380;2023-02-07T03:18:01;96106.44;;;-2.97;69.81
8543;BME280;4309;42.658;23.380;2023-02-07T03:18:42;96100.47;;;-2.98;69.82
8543;BME280;4309;42.658;23.380;2023-02-07T03:19:21;96112.97;;;-2.93;69.86
8543;BME280;4309;42.658;23.380;2023-02-07T03:20:02;96108.38;;;-3.01;69.72
8543;BME280;4309;42.658;23.380;2023-02-07T03:20:38;96111.13;;;-3.04;69.27
8543;BME280;4309;42.658;23.380;2023-02-07T03:21:19;96111.84;;;-3.02;69.48